Time;durP1;ratioP1;P1;durP2;ratioP2;P2;SDS_P1;SDS_P2;PMS_P1;PMS_P2;Temp;Humidity;BMP_temperature;BMP_pressure;BME280_temperature;BME280_humidity;BME280_pressure;Samples;Min_cycle;Max_cycle;Signal;HPM_P1;HPM_P2
2023/02/07 00:02:12;;;;;;;5.90;4.30;;;;;;;-128.00;-1.00;-1.00;101765;1251;1016137;-62
2023/02/07 00:04:41;;;;;;;6.10;4.90;;;;;;;-128.00;-1.00;-1.00;101816;1251;1012996;-61
2023/02/07 00:07:14;;;;;;;6.90;4.80;;;;;;;-128.00;-1.00;-1.00;101775;1251;1010918;-63
2023/02/07 00:09:42;;;;;;;6.50;5.40;;;;;;;-128.00;-1.00;-1.00;101742;1257;1011004;-61
2023/02/07 00:12:12;;;;;;;9.30;6.40;;;;;;;-128.00;-1.00;-1.00;101767;1251;1015647;-62
2023/02/07 00:14:41;;;;;;;6.70;5.40;;;;;;;-128.00;-1.00;-1.00;101774;1251;1012583;-62
2023/02/07 00:17:09;;;;;;;7.80;5.50;;;;;;;-128.00;-1.00;-1.00;101673;1251;1012937;-62
2023/02/07 00:19:38;;;;;;;6.80;4.60;;;;;;;-128.00;-1.00;-1.00;101695;1256;1010520;-64
2023/02/07 00:22:06;;;;;;;8.40;4.90;;;;;;;-128.00;-1.00;-1.00;101691;1256;1011277;-62
2023/02/07 00:24:34;;;;;;;7.40;5.30;;;;;;;-128.00;-1.00;-1.00;101849;1251;1013449;-62
2023/02/07 00:27:03;;;;;;;5.60;4.50;;;;;;;-128.00;-1.00;-1.00;101706;1251;1013802;-62
2023/02/07 00:29:32;;;;;;;6.20;5.00;;;;;;;-128.00;-1.00;-1.00;101749;1256;1013078;-62
2023/02/07 00:32:01;;;;;;;7.00;5.50;;;;;;;-128.00;-1.00;-1.00;101739;1253;1010174;-63
2023/02/07 00:34:34;;;;;;;7.80;6.10;;;;;;;-128.00;-1.00;-1.00;101821;1251;1010687;-62
2023/02/07 00:37:05;;;;;;;7.10;4.80;;;;;;;-128.00;-1.00;-1.00;101804;1251;1013747;-62
2023/02/07 00:39:34;;;;;;;6.30;5.40;;;;;;;-128.00;-1.00;-1.00;101759;1251;1012743;-62
2023/02/07 00:42:03;;;;;;;6.70;5.00;;;;;;;-128.00;-1.00;-1.00;101861;1257;1015266;-62
2023/02/07 00:44:33;;;;;;;8.30;5.40;;;;;;;-128.00;-1.00;-1.00;101788;1251;1010032;-62
2023/02/07 00:47:02;;;;;;;4.60;3.90;;;;;;;-128.00;-1.00;-1.00;101713;1251;1011092;-63
2023/02/07 00:49:30;;;;;;;4.70;4.10;;;;;;;-128.00;-1.00;-1.00;101803;1251;1015663;-63
2023/02/07 00:51:59;;;;;;;6.40;4.40;;;;;;;-128.00;-1.00;-1.00;101791;1255;1014922;-62
2023/02/07 00:54:27;;;;;;;5.30;4.70;;;;;;;-128.00;-1.00;-1.00;101771;1256;1016087;-62
2023/02/07 00:56:56;;;;;;;5.40;4.90;;;;;;;-128.00;-1.00;-1.00;101701;1251;1011096;-61
2023/02/07 00:59:24;;;;;;;5.70;4.80;;;;;;;-128.00;-1.00;-1.00;101811;1254;1011338;-61
2023/02/07 01:01:52;;;;;;;5.70;4.80;;;;;;;-128.00;-1.00;-1.00;101826;1257;1012775;-62
2023/02/07 01:04:21;;;;;;;6.30;4.90;;;;;;;-128.00;-1.00;-1.00;101841;1251;1012798;-63
2023/02/07 01:06:50;;;;;;;6.50;4.80;;;;;;;-128.00;-1.00;-1.00;101751;1257;1013356;-62
2023/02/07 01:09:19;;;;;;;5.00;4.00;;;;;;;-128.00;-1.00;-1.00;101816;1254;1010084;-62
2023/02/07 01:11:47;;;;;;;5.30;4.20;;;;;;;-128.00;-1.00;-1.00;101818;1251;1010969;-62
2023/02/07 01:14:19;;;;;;;5.60;4.40;;;;;;;-128.00;-1.00;-1.00;101785;1256;1013175;-62
2023/02/07 01:16:48;;;;;;;5.50;4.90;;;;;;;-128.00;-1.00;-1.00;101845;1253;1015603;-62
2023/02/07 01:19:17;;;;;;;6.10;4.50;;;;;;;-128.00;-1.00;-1.00;101964;1254;1015944;-61
2023/02/07 01:21:45;;;;;;;5.50;4.50;;;;;;;-128.00;-1.00;-1.00;101740;1253;1010962;-62
2023/02/07 01:24:14;;;;;;;5.30;4.60;;;;;;;-128.00;-1.00;-1.00;101860;1251;1014252;-62
2023/02/07 01:26:42;;;;;;;5.30;4.80;;;;;;;-128.00;-1.00;-1.00;101755;1253;1012677;-61
2023/02/07 01:29:13;;;;;;;6.40;4.90;;;;;;;-128.00;-1.00;-1.00;101810;1251;1013629;-63
2023/02/07 01:31:42;;;;;;;5.20;4.60;;;;;;;-128.00;-1.00;-1.00;101867;1251;1013966;-61
2023/02/07 01:34:11;;;;;;;5.30;4.60;;;;;;;-128.00;-1.00;-1.00;101684;1251;1010570;-63
2023/02/07 01:36:40;;;;;;;4.60;4.00;;;;;;;-128.00;-1.00;-1.00;101786;1251;1010662;-62
2023/02/07 01:39:10;;;;;;;6.80;5.40;;;;;;;-128.00;-1.00;-1.00;101872;1251;1016557;-62
2023/02/07 01:41:38;;;;;;;5.50;5.00;;;;;;;-128.00;-1.00;-1.00;101756;1251;1012357;-62
2023/02/07 01:44:39;;;;;;;10.20;5.30;;;;;;;-128.00;-1.00;-1.00;101865;1251;1012854;-62
2023/02/07 01:47:14;;;;;;;6.30;4.70;;;;;;;-128.00;-1.00;-1.00;101649;1251;1010898;-62
2023/02/07 01:49:43;;;;;;;6.80;5.00;;;;;;;-128.00;-1.00;-1.00;101789;1251;1011692;-62
2023/02/07 01:52:15;;;;;;;5.80;4.80;;;;;;;-128.00;-1.00;-1.00;101812;1251;1013604;-63
2023/02/07 01:54:44;;;;;;;6.10;4.60;;;;;;;-128.00;-1.00;-1.00;101780;1257;1012271;-62
2023/02/07 01:57:15;;;;;;;5.60;4.30;;;;;;;-128.00;-1.00;-1.00;101844;1251;1012549;-62
2023/02/07 01:59:44;;;;;;;6.60;5.40;;;;;;;-128.00;-1.00;-1.00;101906;1253;1010715;-62
2023/02/07 02:02:14;;;;;;;6.70;5.40;;;;;;;-128.00;-1.00;-1.00;101649;1252;1014119;-62
2023/02/07 02:04:42;;;;;;;7.50;6.10;;;;;;;-128.00;-1.00;-1.00;101804;1251;1012359;-63
2023/02/07 02:07:10;;;;;;;7.30;6.10;;;;;;;-128.00;-1.00;-1.00;101824;1251;1015651;-62
2023/02/07 02:09:39;;;;;;;9.20;6.30;;;;;;;-128.00;-1.00;-1.00;101872;1251;1012483;-61
2023/02/07 02:12:17;;;;;;;7.50;5.40;;;;;;;-128.00;-1.00;-1.00;101670;1256;1010514;-62
2023/02/07 02:15:08;;;;;;;6.90;5.30;;;;;;;-128.00;-1.00;-1.00;101814;1253;1011266;-62
2023/02/07 02:18:10;;;;;;;6.30;5.60;;;;;;;-128.00;-1.00;-1.00;101904;1251;1012494;-63
2023/02/07 02:21:14;;;;;;;7.90;6.00;;;;;;;-128.00;-1.00;-1.00;101471;1251;1012806;-61
2023/02/07 02:24:17;;;;;;;6.90;5.90;;;;;;;-128.00;-1.00;-1.00;101841;1252;1012976;-61
2023/02/07 02:26:53;;;;;;;10.30;6.40;;;;;;;-128.00;-1.00;-1.00;101463;1253;1010269;-61
2023/02/07 02:29:44;;;;;;;9.60;7.20;;;;;;;-128.00;-1.00;-1.00;101771;1251;1014244;-62
2023/02/07 02:32:19;;;;;;;8.20;6.10;;;;;;;-128.00;-1.00;-1.00;101639;1251;1013541;-63
2023/02/07 02:34:55;;;;;;;7.20;5.60;;;;;;;-128.00;-1.00;-1.00;101789;1252;1014258;-62
2023/02/07 02:37:41;;;;;;;7.20;5.60;;;;;;;-128.00;-1.00;-1.00;101688;1256;1014750;-62
2023/02/07 02:40:39;;;;;;;7.00;5.70;;;;;;;-128.00;-1.00;-1.00;101800;1253;1009974;-61
2023/02/07 02:43:24;;;;;;;8.10;6.20;;;;;;;-128.00;-1.00;-1.00;101720;1251;1011010;-62
2023/02/07 02:46:00;;;;;;;8.80;6.00;;;;;;;-128.00;-1.00;-1.00;101727;1251;1013616;-61
2023/02/07 02:48:29;;;;;;;6.60;5.80;;;;;;;-128.00;-1.00;-1.00;101738;1256;1015644;-62
2023/02/07 02:50:58;;;;;;;6.80;5.50;;;;;;;-128.00;-1.00;-1.00;101753;1251;1012465;-61
2023/02/07 02:53:26;;;;;;;7.10;5.70;;;;;;;-128.00;-1.00;-1.00;101826;1251;1010142;-62
2023/02/07 02:55:56;;;;;;;6.40;5.70;;;;;;;-128.00;-1.00;-1.00;101898;1251;1011670;-62
2023/02/07 02:58:51;;;;;;;7.40;5.90;;;;;;;-128.00;-1.00;-1.00;101846;1253;1014973;-61
2023/02/07 03:01:45;;;;;;;8.90;6.90;;;;;;;-128.00;-1.00;-1.00;101765;1253;1015748;-62
2023/02/07 03:04:32;;;;;;;7.90;6.00;;;;;;;-128.00;-1.00;-1.00;101877;1253;1013500;-63
2023/02/07 03:07:04;;;;;;;;;;;;;;;-128.00;-1.00;-1.00;101766;1256;1012933;-63
2023/02/07 03:09:32;;;;;;;7.30;5.70;;;;;;;-128.00;-1.00;-1.00;101833;1251;1014239;-62
2023/02/07 03:12:17;;;;;;;8.50;6.60;;;;;;;-128.00;-1.00;-1.00;101763;1251;1013977;-61
2023/02/07 03:14:52;;;;;;;6.60;5.70;;;;;;;-128.00;-1.00;-1.00;101880;1257;1012491;-62
2023/02/07 03:17:34;;;;;;;9.20;6.60;;;;;;;-128.00;-1.00;-1.00;101790;1252;1013521;-63
2023/02/07 03:20:10;;;;;;;8.20;6.50;;;;;;;-128.00;-1.00;-1.00;101674;1251;1010195;-63
2023/02/07 03:22:39;;;;;;;8.00;5.90;;;;;;;-128.00;-1.00;-1.00;101804;1251;1012979;-62
2023/02/07 03:25:07;;;;;;;9.50;7.50;;;;;;;-128.00;-1.00;-1.00;101845;1253;1013561;-63
2023/02/07 03:27:37;;;;;;;8.10;6.10;;;;;;;-128.00;-1.00;-1.00;101905;1259;1015535;-61
2023/02/07 03:30:08;;;;;;;9.00;6.40;;;;;;;-128.00;-1.00;-1.00;101871;1251;1013135;-61
2023/02/07 03:32:39;;;;;;;9.80;7.10;;;;;;;-128.00;-1.00;-1.00;101698;1251;1010921;-62
2023/02/07 03:35:14;;;;;;;8.80;6.50;;;;;;;-128.00;-1.00;-1.00;101782;1251;1011198;-62
2023/02/07 03:37:54;;;;;;;8.10;6.50;;;;;;;-128.00;-1.00;-1.00;101806;1267;1013682;-62
2023/02/07 03:40:24;;;;;;;8.00;6.20;;;;;;;-128.00;-1.00;-1.00;101818;1251;1012806;-62
2023/02/07 03:42:56;;;;;;;9.70;6.70;;;;;;;-128.00;-1.00;-1.00;101669;1251;1015321;-62
2023/02/07 03:45:25;;;;;;;8.20;6.30;;;;;;;-128.00;-1.00;-1.00;101743;1254;1010045;-61
2023/02/07 03:47:53;;;;;;;8.70;6.50;;;;;;;-128.00;-1.00;-1.00;101803;1260;1010685;-62
2023/02/07 03:50:21;;;;;;;7.70;6.20;;;;;;;-128.00;-1.00;-1.00;101673;1256;1013508;-61
2023/02/07 03:52:49;;;;;;;8.70;6.30;;;;;;;-128.00;-1.00;-1.00;101725;1251;1013669;-61
2023/02/07 03:55:18;;;;;;;8.50;6.40;;;;;;;-128.00;-1.00;-1.00;101716;1251;1012490;-62
2023/02/07 03:57:46;;;;;;;9.40;6.90;;;;;;;-128.00;-1.00;-1.00;101753;1251;1010102;-61
2023/02/07 04:00:14;;;;;;;9.20;7.00;;;;;;;-128.00;-1.00;-1.00;101751;1251;1014027;-62
2023/02/07 04:02:43;;;;;;;9.00;7.60;;;;;;;-128.00;-1.00;-1.00;101688;1253;1013541;-61
2023/02/07 04:05:11;;;;;;;8.90;6.80;;;;;;;-128.00;-1.00;-1.00;101737;1256;1012658;-62
2023/02/07 04:07:40;;;;;;;9.50;7.20;;;;;;;-128.00;-1.00;-1.00;101754;1251;1012945;-62
2023/02/07 04:10:09;;;;;;;9.60;6.90;;;;;;;-128.00;-1.00;-1.00;101753;1256;1012726;-61
2023/02/07 04:12:41;;;;;;;8.90;7.10;;;;;;;-128.00;-1.00;-1.00;101651;1251;1013770;-61
2023/02/07 04:15:09;;;;;;;10.70;6.80;;;;;;;-128.00;-1.00;-1.00;101786;1251;1013047;-61
2023/02/07 04:17:38;;;;;;;8.70;6.70;;;;;;;-128.00;-1.00;-1.00;101766;1251;1013428;-62
2023/02/07 04:20:07;;;;;;;8.40;6.90;;;;;;;-128.00;-1.00;-1.00;101662;1253;1015765;-62
2023/02/07 04:22:36;;;;;;;8.50;6.90;;;;;;;-128.00;-1.00;-1.00;101777;1251;1010365;-61
2023/02/07 04:25:05;;;;;;;8.40;6.60;;;;;;;-128.00;-1.00;-1.00;101730;1251;1014457;-63
2023/02/07 04:27:33;;;;;;;8.50;6.70;;;;;;;-128.00;-1.00;-1.00;101806;1251;1013064;-62
2023/02/07 04:30:03;;;;;;;8.90;6.90;;;;;;;-128.00;-1.00;-1.00;101781;1256;1012478;-63
2023/02/07 04:32:31;;;;;;;8.90;7.30;;;;;;;-128.00;-1.00;-1.00;101677;1251;1013416;-62
2023/02/07 04:35:00;;;;;;;10.00;7.10;;;;;;;-128.00;-1.00;-1.00;101753;1256;1009769;-61
2023/02/07 04:37:28;;;;;;;12.90;8.00;;;;;;;-128.00;-1.00;-1.00;101742;1252;1011225;-62
2023/02/07 04:39:57;;;;;;;10.00;7.30;;;;;;;-128.00;-1.00;-1.00;101779;1256;1013600;-61
2023/02/07 04:42:25;;;;;;;8.90;6.80;;;;;;;-128.00;-1.00;-1.00;101710;1254;1015552;-62
2023/02/07 04:44:53;;;;;;;9.50;7.20;;;;;;;-128.00;-1.00;-1.00;101736;1251;1016225;-61
2023/02/07 04:47:22;;;;;;;9.60;7.80;;;;;;;-128.00;-1.00;-1.00;101724;1253;1010088;-61
2023/02/07 04:49:51;;;;;;;13.10;7.60;;;;;;;-128.00;-1.00;-1.00;101683;1251;1011052;-61
2023/02/07 04:52:19;;;;;;;12.90;7.50;;;;;;;-128.00;-1.00;-1.00;101839;1256;1012892;-62
2023/02/07 04:54:47;;;;;;;10.90;8.00;;;;;;;-128.00;-1.00;-1.00;101743;1251;1013426;-61
2023/02/07 04:57:16;;;;;;;7.80;6.50;;;;;;;-128.00;-1.00;-1.00;101833;1251;1013030;-61
2023/02/07 04:59:45;;;;;;;10.50;7.80;;;;;;;-128.00;-1.00;-1.00;101676;1251;1010778;-62
2023/02/07 05:02:13;;;;;;;9.10;7.70;;;;;;;-128.00;-1.00;-1.00;101762;1253;1011209;-64
2023/02/07 05:04:42;;;;;;;11.70;8.30;;;;;;;-128.00;-1.00;-1.00;101756;1256;1013284;-62
2023/02/07 05:07:10;;;;;;;10.30;8.10;;;;;;;-128.00;-1.00;-1.00;101661;1253;1012916;-64
2023/02/07 05:09:39;;;;;;;9.60;8.10;;;;;;;-128.00;-1.00;-1.00;101823;1251;1012734;-62
2023/02/07 05:12:07;;;;;;;10.00;7.30;;;;;;;-128.00;-1.00;-1.00;101880;1256;1012931;-62
2023/02/07 05:14:37;;;;;;;9.80;7.80;;;;;;;-128.00;-1.00;-1.00;101776;1253;1011789;-62
2023/02/07 05:17:05;;;;;;;9.20;7.50;;;;;;;-128.00;-1.00;-1.00;101811;1251;1015945;-63
2023/02/07 05:19:34;;;;;;;10.90;8.00;;;;;;;-128.00;-1.00;-1.00;101723;1251;1013731;-64
2023/02/07 05:22:03;;;;;;;9.40;7.50;;;;;;;-128.00;-1.00;-1.00;101768;1256;1015701;-64
2023/02/07 05:24:31;;;;;;;8.40;7.00;;;;;;;-128.00;-1.00;-1.00;101808;1251;1010729;-64
2023/02/07 05:27:00;;;;;;;10.10;7.40;;;;;;;-128.00;-1.00;-1.00;101719;1253;1011370;-63
2023/02/07 05:29:28;;;;;;;8.10;7.30;;;;;;;-128.00;-1.00;-1.00;101808;1254;1013660;-64
2023/02/07 05:34:44;;;;;;;11.00;8.10;;;;;;;-128.00;-1.00;-1.00;101748;1253;1013464;-63
2023/02/07 05:37:13;;;;;;;10.20;8.20;;;;;;;-128.00;-1.00;-1.00;101730;1252;1010346;-65
2023/02/07 05:39:41;;;;;;;12.00;8.00;;;;;;;-128.00;-1.00;-1.00;101678;1252;1010629;-65
2023/02/07 05:42:09;;;;;;;10.70;8.40;;;;;;;-128.00;-1.00;-1.00;101667;1260;1014221;-63
2023/02/07 05:44:38;;;;;;;12.80;10.00;;;;;;;-128.00;-1.00;-1.00;101858;1251;1013597;-64
2023/02/07 05:47:07;;;;;;;10.90;9.00;;;;;;;-128.00;-1.00;-1.00;101781;1251;1013286;-63
2023/02/07 05:49:37;;;;;;;11.30;9.00;;;;;;;-128.00;-1.00;-1.00;101671;1251;1009948;-64
2023/02/07 05:52:07;;;;;;;10.60;8.20;;;;;;;-128.00;-1.00;-1.00;101906;1255;1010595;-63
2023/02/07 05:54:38;;;;;;;10.50;8.60;;;;;;;-128.00;-1.00;-1.00;101767;1251;1012766;-64
2023/02/07 05:57:06;;;;;;;12.90;8.90;;;;;;;-128.00;-1.00;-1.00;101693;1253;1013477;-63
2023/02/07 05:59:34;;;;;;;11.50;8.20;;;;;;;-128.00;-1.00;-1.00;101763;1256;1015819;-64
2023/02/07 06:23:50;;;;;;;11.10;7.80;;;;;;;-3.39;100.00;101225.00;102054;1299;601604;-61
2023/02/07 06:26:20;;;;;;;10.90;7.70;;;;;;;-2.81;100.00;101234.73;103831;1285;62805;-62
2023/02/07 06:28:49;;;;;;;11.40;9.10;;;;;;;-2.67;100.00;101232.67;103836;1264;61008;-69
2023/02/07 06:31:17;;;;;;;17.30;10.00;;;;;;;-2.54;100.00;101230.58;103464;1273;74168;-69
2023/02/07 06:33:46;;;;;;;12.90;10.00;;;;;;;-2.43;100.00;101233.38;103791;1282;72343;-68
2023/02/07 06:36:15;;;;;;;11.80;9.80;;;;;;;-77.74;39.40;40493.81;102483;1266;1002800;-71
2023/02/07 06:38:43;;;;;;;12.90;9.80;;;;;;;-128.00;-1.00;-1.00;101458;1263;1011963;-65
2023/02/07 06:41:12;;;;;;;13.00;10.40;;;;;;;-128.00;-1.00;-1.00;101386;1262;1013754;-67
2023/02/07 06:43:40;;;;;;;14.70;10.70;;;;;;;-128.00;-1.00;-1.00;101311;1264;1013144;-66
2023/02/07 06:46:08;;;;;;;15.00;9.60;;;;;;;-128.00;-1.00;-1.00;101412;1262;1016181;-65
2023/02/07 06:48:38;;;;;;;12.50;9.90;;;;;;;-128.00;-1.00;-1.00;101351;1268;1014188;-63
2023/02/07 06:51:07;;;;;;;13.50;10.20;;;;;;;-128.00;-1.00;-1.00;101311;1263;1010276;-66
2023/02/07 06:53:37;;;;;;;13.40;9.90;;;;;;;-128.00;-1.00;-1.00;101659;1263;1012231;-67
2023/02/07 06:56:06;;;;;;;12.80;9.60;;;;;;;-128.00;-1.00;-1.00;101458;1263;1013323;-67
2023/02/07 06:58:35;;;;;;;10.40;8.50;;;;;;;-128.00;-1.00;-1.00;101543;1262;1012467;-65
2023/02/07 07:01:04;;;;;;;10.60;7.90;;;;;;;-128.00;-1.00;-1.00;101933;1256;1013296;-65
2023/02/07 07:03:33;;;;;;;11.20;8.40;;;;;;;-128.00;-1.00;-1.00;101724;1259;1010368;-65
2023/02/07 07:06:03;;;;;;;9.40;7.90;;;;;;;-128.00;-1.00;-1.00;101494;1257;1012942;-68
2023/02/07 07:08:34;;;;;;;10.30;7.00;;;;;;;-128.00;-1.00;-1.00;101505;1257;1015725;-65
2023/02/07 07:11:04;;;;;;;9.20;7.10;;;;;;;-128.00;-1.00;-1.00;101845;1257;1014199;-66
2023/02/07 07:13:33;;;;;;;7.00;6.30;;;;;;;-128.00;-1.00;-1.00;101875;1259;1013100;-69
2023/02/07 07:16:02;;;;;;;8.20;6.40;;;;;;;-128.00;-1.00;-1.00;101717;1256;1012515;-69
2023/02/07 07:18:32;;;;;;;8.60;7.00;;;;;;;-128.00;-1.00;-1.00;102012;1257;1010423;-64
2023/02/07 07:21:00;;;;;;;9.00;6.70;;;;;;;-128.00;-1.00;-1.00;101988;1250;1016233;-70
2023/02/07 07:23:30;;;;;;;7.40;6.70;;;;;;;-128.00;-1.00;-1.00;101871;1250;1012834;-68
2023/02/07 07:26:00;;;;;;;8.40;6.70;;;;;;;-128.00;-1.00;-1.00;101540;1260;1015179;-69
2023/02/07 07:28:30;;;;;;;7.40;5.90;;;;;;;-128.00;-1.00;-1.00;101887;1251;1012894;-68
2023/02/07 07:31:05;;;;;;;6.90;5.80;;;;;;;-128.00;-1.00;-1.00;101892;1250;1011004;-67
2023/02/07 07:33:35;;;;;;;6.90;5.60;;;;;;;-128.00;-1.00;-1.00;101987;1251;1012948;-68
2023/02/07 07:36:04;;;;;;;8.60;6.40;;;;;;;-128.00;-1.00;-1.00;101940;1254;1013290;-66
2023/02/07 07:38:37;;;;;;;7.90;6.10;;;;;;;-128.00;-1.00;-1.00;102129;1251;1013009;-69
2023/02/07 07:41:06;;;;;;;8.70;6.20;;;;;;;-128.00;-1.00;-1.00;101873;1253;1012431;-69
2023/02/07 07:43:40;;;;;;;6.70;5.90;;;;;;;-128.00;-1.00;-1.00;101818;1253;1011639;-70
2023/02/07 07:46:10;;;;;;;7.40;6.30;;;;;;;-128.00;-1.00;-1.00;102368;1250;1015071;-70
2023/02/07 07:48:38;;;;;;;9.10;6.30;;;;;;;-128.00;-1.00;-1.00;102119;1251;1016061;-68
2023/02/07 07:51:07;;;;;;;7.10;6.30;;;;;;;-128.00;-1.00;-1.00;102023;1256;1015384;-70
2023/02/07 07:56:34;;;;;;;8.80;6.30;;;;;;;-1.63;100.00;101281.45;102403;1290;618111;-66
2023/02/07 07:59:01;;;;;;;6.60;5.80;;;;;;;-1.25;100.00;101281.64;103911;1270;61553;-66
2023/02/07 08:01:39;;;;;;;6.60;5.80;;;;;;;-128.00;-1.00;-1.00;101038;1267;1010953;-66
2023/02/07 08:04:08;;;;;;;7.00;5.60;;;;;;;-128.00;-1.00;-1.00;101162;1267;1015199;-67
2023/02/07 08:06:36;;;;;;;8.40;6.20;;;;;;;-128.00;-1.00;-1.00;100902;1268;1013527;-66
2023/02/07 08:09:05;;;;;;;6.70;6.00;;;;;;;-128.00;-1.00;-1.00;100817;1270;1015745;-66
2023/02/07 08:11:31;;;;;;;6.80;5.40;;;;;;;-128.00;-1.00;-1.00;102433;1255;1002337;-70
2023/02/07 08:13:59;;;;;;;6.80;5.70;;;;;;;-128.00;-1.00;-1.00;102080;1254;1002561;-72
2023/02/07 08:16:30;;;;;;;6.50;5.80;;;;;;;-128.00;-1.00;-1.00;102142;1258;1002526;-70
2023/02/07 08:18:58;;;;;;;7.90;6.20;;;;;;;-128.00;-1.00;-1.00;101776;1256;1016167;-66
2023/02/07 08:21:26;;;;;;;6.10;5.50;;;;;;;-128.00;-1.00;-1.00;101815;1257;1002421;-65
2023/02/07 08:23:53;;;;;;;;;;;;;;;-128.00;-1.00;-1.00;101551;1257;1002005;-66
2023/02/07 08:26:21;;;;;;;7.30;4.80;;;;;;;-128.00;-1.00;-1.00;101812;1258;1004495;-67
2023/02/07 08:28:49;;;;;;;6.00;4.90;;;;;;;-128.00;-1.00;-1.00;101584;1256;1003109;-73
2023/02/07 08:31:18;;;;;;;5.50;4.90;;;;;;;-128.00;-1.00;-1.00;101752;1257;1013563;-74
2023/02/07 08:33:46;;;;;;;6.80;4.80;;;;;;;-128.00;-1.00;-1.00;101487;1262;1015172;-73
2023/02/07 08:36:13;;;;;;;5.10;4.50;;;;;;;-128.00;-1.00;-1.00;102504;1257;1003083;-73
2023/02/07 08:38:40;;;;;;;4.30;3.50;;;;;;;-128.00;-1.00;-1.00;102243;1257;1004194;-72
2023/02/07 08:41:08;;;;;;;6.10;4.90;;;;;;;-128.00;-1.00;-1.00;102026;1256;1002586;-73
2023/02/07 08:43:37;;;;;;;5.10;4.40;;;;;;;-128.00;-1.00;-1.00;101999;1257;1002793;-73
2023/02/07 08:46:05;;;;;;;4.80;4.30;;;;;;;-128.00;-1.00;-1.00;101943;1260;1015905;-73
2023/02/07 08:48:34;;;;;;;5.00;3.50;;;;;;;-128.00;-1.00;-1.00;101511;1257;1011477;-74
2023/02/07 08:51:05;;;;;;;4.00;3.30;;;;;;;-128.00;-1.00;-1.00;101546;1257;1004854;-70
2023/02/07 08:53:32;;;;;;;4.20;3.80;;;;;;;-128.00;-1.00;-1.00;101630;1259;1013378;-71
2023/02/07 08:56:00;;;;;;;4.30;3.90;;;;;;;-128.00;-1.00;-1.00;101638;1257;1002686;-72
2023/02/07 08:58:27;;;;;;;5.30;3.70;;;;;;;-128.00;-1.00;-1.00;101587;1260;1002384;-75
2023/02/07 09:00:55;;;;;;;4.30;3.90;;;;;;;-128.00;-1.00;-1.00;101948;1254;1003973;-73
2023/02/07 09:03:23;;;;;;;4.80;4.30;;;;;;;-128.00;-1.00;-1.00;101657;1259;1011708;-71
2023/02/07 09:05:50;;;;;;;5.10;4.30;;;;;;;-128.00;-1.00;-1.00;101774;1254;1002585;-66
2023/02/07 09:08:17;;;;;;;4.20;3.70;;;;;;;-128.00;-1.00;-1.00;101556;1259;1002421;-66
2023/02/07 09:10:46;;;;;;;6.20;3.80;;;;;;;-128.00;-1.00;-1.00;101748;1253;1003842;-68
2023/02/07 09:13:14;;;;;;;3.80;3.40;;;;;;;-128.00;-1.00;-1.00;101922;1254;1009969;-70
2023/02/07 09:15:41;;;;;;;;;;;;;;;-128.00;-1.00;-1.00;102266;1256;1004279;-71
2023/02/07 09:18:08;;;;;;;3.80;3.10;;;;;;;-128.00;-1.00;-1.00;101974;1254;1004750;-67
2023/02/07 09:20:37;;;;;;;3.90;3.40;;;;;;;-128.00;-1.00;-1.00;101915;1254;1003169;-66
2023/02/07 09:23:39;;;;;;;6.40;3.70;;;;;;;-128.00;-1.00;-1.00;101723;1260;1013097;-70
2023/02/07 09:26:03;;;;;;;3.20;2.90;;;;;;;-128.00;-1.00;-1.00;101943;1254;1010173;-68
2023/02/07 09:28:30;;;;;;;4.00;3.10;;;;;;;-128.00;-1.00;-1.00;102012;1257;1011226;-66
2023/02/07 09:30:57;;;;;;;;;;;;;;;-128.00;-1.00;-1.00;102031;1256;1002414;-65
2023/02/07 09:33:26;;;;;;;3.60;3.00;;;;;;;-128.00;-1.00;-1.00;101919;1258;1003418;-65
2023/02/07 09:35:53;;;;;;;3.80;3.40;;;;;;;-128.00;-1.00;-1.00;101692;1254;1003667;-65
2023/02/07 09:38:22;;;;;;;5.30;3.70;;;;;;;-128.00;-1.00;-1.00;101981;1254;1003203;-70
2023/02/07 09:40:50;;;;;;;4.20;3.60;;;;;;;-128.00;-1.00;-1.00;101881;1258;1011068;-68
2023/02/07 09:43:21;;;;;;;3.80;3.50;;;;;;;-128.00;-1.00;-1.00;101444;1262;1012161;-64
2023/02/07 09:45:54;;;;;;;3.80;2.90;;;;;;;-128.00;-1.00;-1.00;101767;1258;1012845;-65
2023/02/07 09:48:25;;;;;;;4.10;3.40;;;;;;;-128.00;-1.00;-1.00;101815;1254;1013077;-64
2023/02/07 09:50:58;;;;;;;3.50;3.20;;;;;;;-128.00;-1.00;-1.00;101897;1255;1012091;-64
2023/02/07 09:53:38;;;;;;;3.40;3.10;;;;;;;-128.00;-1.00;-1.00;101810;1254;1010962;-64
2023/02/07 09:56:05;;;;;;;4.30;3.40;;;;;;;-128.00;-1.00;-1.00;101817;1254;1012540;-64
2023/02/07 09:58:46;;;;;;;4.00;3.60;;;;;;;-128.00;-1.00;-1.00;101986;1256;1002768;-64
2023/02/07 10:01:15;;;;;;;3.80;3.40;;;;;;;-128.00;-1.00;-1.00;101966;1260;1015490;-64
2023/02/07 10:04:08;;;;;;;3.70;3.30;;;;;;;-128.00;-1.00;-1.00;102025;1261;1011408;-65
2023/02/07 10:06:37;;;;;;;4.70;3.50;;;;;;;-128.00;-1.00;-1.00;101799;1263;1011309;-68
2023/02/07 10:09:05;;;;;;;4.10;3.70;;;;;;;-128.00;-1.00;-1.00;101912;1256;1013661;-70
2023/02/07 10:11:37;;;;;;;;;;;;;;;-128.00;-1.00;-1.00;102113;1255;1002347;-62
2023/02/07 10:14:15;;;;;;;4.40;3.20;;;;;;;-128.00;-1.00;-1.00;101824;1252;1015666;-67
2023/02/07 10:17:09;;;;;;;3.40;3.10;;;;;;;-128.00;-1.00;-1.00;102009;1254;1011292;-65
2023/02/07 10:20:03;;;;;;;3.40;2.90;;;;;;;-128.00;-1.00;-1.00;102059;1254;1013484;-64
2023/02/07 10:22:56;;;;;;;3.00;2.70;;;;;;;-128.00;-1.00;-1.00;102183;1257;1013017;-66
2023/02/07 10:25:39;;;;;;;2.80;2.50;;;;;;;-128.00;-1.00;-1.00;101789;1254;1013406;-63
2023/02/07 10:28:30;;;;;;;2.80;2.50;;;;;;;-128.00;-1.00;-1.00;101655;1254;1013618;-64
2023/02/07 10:30:58;;;;;;;2.40;2.20;;;;;;;-128.00;-1.00;-1.00;101983;1254;1010595;-63
2023/02/07 10:33:31;;;;;;;2.20;2.00;;;;;;;-128.00;-1.00;-1.00;102108;1254;1013213;-64
2023/02/07 10:36:02;;;;;;;1.90;1.80;;;;;;;-128.00;-1.00;-1.00;101975;1258;1013504;-64
2023/02/07 10:38:53;;;;;;;2.10;1.90;;;;;;;-128.00;-1.00;-1.00;102163;1254;1015319;-64
2023/02/07 10:41:36;;;;;;;2.20;2.00;;;;;;;-128.00;-1.00;-1.00;101908;1254;1013502;-64
2023/02/07 10:44:22;;;;;;;2.40;2.10;;;;;;;-128.00;-1.00;-1.00;102586;1258;1011584;-64
2023/02/07 10:46:59;;;;;;;2.00;1.80;;;;;;;-128.00;-1.00;-1.00;101972;1254;1011255;-66
2023/02/07 10:49:28;;;;;;;1.90;1.70;;;;;;;-128.00;-1.00;-1.00;102156;1254;1012543;-67
2023/02/07 10:51:57;;;;;;;2.20;2.00;;;;;;;-128.00;-1.00;-1.00;102128;1254;1015570;-66
2023/02/07 10:54:25;;;;;;;1.80;1.70;;;;;;;-128.00;-1.00;-1.00;102245;1254;1015654;-66
2023/02/07 10:57:01;;;;;;;2.30;2.10;;;;;;;-128.00;-1.00;-1.00;101504;1263;1003390;-68
2023/02/07 10:59:44;;;;;;;2.30;2.10;;;;;;;-128.00;-1.00;-1.00;101796;1254;1011492;-69
2023/02/07 11:02:32;;;;;;;1.70;1.60;;;;;;;-128.00;-1.00;-1.00;101737;1254;1015682;-68
2023/02/07 11:05:14;;;;;;;2.20;2.00;;;;;;;-128.00;-1.00;-1.00;101873;1256;1013101;-68
2023/02/07 11:08:14;;;;;;;2.60;2.00;;;;;;;-128.00;-1.00;-1.00;101752;1254;1013201;-69
2023/02/07 11:10:50;;;;;;;1.80;1.70;;;;;;;-128.00;-1.00;-1.00;101613;1254;1010820;-68
2023/02/07 11:13:25;;;;;;;2.20;2.00;;;;;;;-128.00;-1.00;-1.00;101873;1254;1010876;-68
2023/02/07 11:16:06;;;;;;;2.20;1.80;;;;;;;-128.00;-1.00;-1.00;101852;1255;1013217;-68
2023/02/07 11:18:40;;;;;;;2.80;2.30;;;;;;;-128.00;-1.00;-1.00;101863;1254;1012514;-64
2023/02/07 11:21:21;;;;;;;2.70;2.40;;;;;;;-128.00;-1.00;-1.00;102049;1256;1012710;-64
2023/02/07 11:23:50;;;;;;;;;;;;;;;-128.00;-1.00;-1.00;101886;1256;1010341;-66
2023/02/07 11:26:20;;;;;;;2.00;1.80;;;;;;;-128.00;-1.00;-1.00;102102;1254;1002320;-67
2023/02/07 11:28:52;;;;;;;1.80;1.60;;;;;;;-128.00;-1.00;-1.00;102043;1257;1014454;-70
2023/02/07 11:31:27;;;;;;;2.10;1.80;;;;;;;-128.00;-1.00;-1.00;101740;1256;1012994;-66
2023/02/07 11:34:05;;;;;;;2.50;2.30;;;;;;;-128.00;-1.00;-1.00;101544;1255;1013682;-65
2023/02/07 11:36:35;;;;;;;2.10;1.90;;;;;;;-128.00;-1.00;-1.00;101601;1254;1010606;-64
2023/02/07 11:39:13;;;;;;;2.10;1.90;;;;;;;-128.00;-1.00;-1.00;101530;1255;1010626;-66
2023/02/07 11:41:41;;;;;;;2.90;2.60;;;;;;;-128.00;-1.00;-1.00;101855;1254;1012691;-63
2023/02/07 11:44:15;;;;;;;2.00;1.80;;;;;;;-128.00;-1.00;-1.00;102212;1254;1003847;-63
2023/02/07 11:46:44;;;;;;;2.20;2.00;;;;;;;-128.00;-1.00;-1.00;102162;1260;1016484;-64
2023/02/07 11:49:24;;;;;;;2.20;2.00;;;;;;;-128.00;-1.00;-1.00;101797;1254;1011338;-66
2023/02/07 11:51:56;;;;;;;2.40;1.80;;;;;;;-128.00;-1.00;-1.00;101628;1254;1010956;-67
2023/02/07 11:54:23;;;;;;;2.00;1.80;;;;;;;-128.00;-1.00;-1.00;101740;1257;1012995;-67
2023/02/07 11:56:52;;;;;;;1.70;1.60;;;;;;;-128.00;-1.00;-1.00;101717;1254;1002496;-64
2023/02/07 11:59:21;;;;;;;1.90;1.70;;;;;;;-128.00;-1.00;-1.00;102050;1254;1013135;-70
2023/02/07 12:01:54;;;;;;;1.60;1.50;;;;;;;-128.00;-1.00;-1.00;101956;1254;1010132;-63
2023/02/07 12:04:48;;;;;;;1.80;1.50;;;;;;;-128.00;-1.00;-1.00;101657;1254;1010907;-66
2023/02/07 12:07:24;;;;;;;2.00;1.80;;;;;;;-128.00;-1.00;-1.00;101527;1256;1013121;-63